Time;durP1;ratioP1;P1;durP2;ratioP2;P2;SDS_P1;SDS_P2;PMS_P1;PMS_P2;Temp;Humidity;BMP_temperature;BMP_pressure;BME280_temperature;BME280_humidity;BME280_pressure;Samples;Min_cycle;Max_cycle;Signal;HPM_P1;HPM_P2
2022/12/25 00:00:18;;;;;;;5.93;2.57;;;;;;;7.89;99.65;95669.34;4779968;30;20232;-81
2022/12/25 00:02:43;;;;;;;4.37;2.37;;;;;;;7.89;99.51;95663.34;4798695;29;20217;-80
2022/12/25 00:05:08;;;;;;;7.00;2.53;;;;;;;7.86;99.68;95666.16;4789461;30;20210;-81
2022/12/25 00:07:34;;;;;;;6.77;2.43;;;;;;;7.91;99.72;95669.19;4789457;29;20355;-81
2022/12/25 00:09:59;;;;;;;2.97;2.43;;;;;;;7.88;99.16;95665.13;4790675;30;20545;-80
2022/12/25 00:12:24;;;;;;;4.87;2.17;;;;;;;7.84;99.90;95668.06;4778439;30;20229;-81
2022/12/25 00:14:52;;;;;;;4.53;2.27;;;;;;;7.94;99.33;95669.75;4791267;30;20795;-82
2022/12/25 00:17:18;;;;;;;4.50;2.70;;;;;;;7.86;99.82;95666.16;4778772;30;20242;-81
2022/12/25 00:19:43;;;;;;;2.43;2.20;;;;;;;7.92;98.83;95658.72;4788914;30;20199;-80
2022/12/25 00:22:08;;;;;;;3.77;2.40;;;;;;;8.01;98.71;95654.53;4789951;30;20199;-81
2022/12/25 00:24:34;;;;;;;4.97;2.80;;;;;;;7.87;99.57;95653.13;4789626;30;20597;-84
2022/12/25 00:26:59;;;;;;;3.70;2.70;;;;;;;7.81;100.00;95658.81;4787828;29;20310;-82
2022/12/25 00:29:24;;;;;;;4.63;2.80;;;;;;;7.89;99.37;95650.41;4787886;30;20753;-81
2022/12/25 00:31:49;;;;;;;3.23;2.73;;;;;;;7.75;100.00;95658.50;4786109;30;20236;-79
2022/12/25 00:34:15;;;;;;;4.40;2.77;;;;;;;7.63;100.00;95663.75;4788189;30;20213;-80
2022/12/25 00:36:40;;;;;;;6.83;3.07;;;;;;;7.79;100.00;95665.88;4786726;29;20222;-82
2022/12/25 00:39:06;;;;;;;3.77;2.80;;;;;;;7.82;100.00;95660.44;4787898;30;20290;-81
2022/12/25 00:44:15;;;;;;;5.03;3.10;;;;;;;7.81;100.00;95663.97;4788425;30;20259;-81
2022/12/25 00:46:41;;;;;;;3.83;3.10;;;;;;;7.90;100.00;95660.63;4787156;30;20223;-81
2022/12/25 00:49:06;;;;;;;4.03;2.80;;;;;;;7.79;100.00;95659.91;4773812;30;20723;-82
2022/12/25 00:51:32;;;;;;;6.57;3.10;;;;;;;7.72;100.00;95656.16;4773640;30;20207;-80
2022/12/25 00:53:58;;;;;;;4.30;3.30;;;;;;;7.71;100.00;95651.97;4788243;29;20345;-81
2022/12/25 00:56:23;;;;;;;4.03;3.47;;;;;;;7.72;100.00;95653.59;4785284;29;20650;-80
2022/12/25 00:58:48;;;;;;;4.10;2.87;;;;;;;7.74;100.00;95651.69;4789688;29;20203;-81
2022/12/25 01:01:14;;;;;;;4.33;3.40;;;;;;;7.72;100.00;95662.16;4788507;30;20226;-81
2022/12/25 01:03:39;;;;;;;7.17;3.43;;;;;;;7.63;100.00;95660.34;4789129;30;20214;-83
2022/12/25 01:06:06;;;;;;;6.90;3.43;;;;;;;7.73;100.00;95661.22;4787703;29;20222;-82
2022/12/25 01:08:34;;;;;;;6.03;3.27;;;;;;;7.80;100.00;95661.53;4774202;30;20658;-83
2022/12/25 01:11:02;;;;;;;5.77;3.20;;;;;;;7.84;100.00;95655.97;4787135;29;20245;-82
2022/12/25 01:13:28;;;;;;;5.17;3.30;;;;;;;7.92;100.00;95657.91;4784677;30;20214;-81
2022/12/25 01:15:53;;;;;;;4.47;3.33;;;;;;;7.83;100.00;95645.75;4799523;29;20231;-83
2022/12/25 01:18:20;;;;;;;4.20;3.20;;;;;;;7.90;100.00;95658.03;4787867;30;20206;-82
2022/12/25 01:20:46;;;;;;;3.73;3.10;;;;;;;7.77;100.00;95661.75;4799963;29;20202;-84
2022/12/25 01:23:11;;;;;;;4.40;3.20;;;;;;;7.74;100.00;95664.63;4786262;30;20194;-83
2022/12/25 01:25:36;;;;;;;5.00;3.40;;;;;;;7.88;100.00;95666.88;4798114;29;20226;-82
2022/12/25 01:28:02;;;;;;;6.00;3.20;;;;;;;7.90;100.00;95667.56;4786176;30;20223;-83
2022/12/25 01:30:27;;;;;;;3.80;3.10;;;;;;;7.82;100.00;95670.78;4785697;30;20215;-81
2022/12/25 01:32:52;;;;;;;3.87;3.40;;;;;;;7.86;100.00;95668.75;4786179;30;20203;-80
2022/12/25 01:35:17;;;;;;;3.77;3.10;;;;;;;7.92;100.00;95670.84;4786702;30;20650;-82
2022/12/25 01:37:43;;;;;;;4.40;3.40;;;;;;;7.92;100.00;95665.66;4785050;29;20223;-81
2022/12/25 01:40:08;;;;;;;3.63;3.27;;;;;;;7.89;100.00;95671.91;4787340;30;20195;-81
2022/12/25 01:42:34;;;;;;;5.00;3.30;;;;;;;7.93;100.00;95667.31;4791356;29;20200;-81
2022/12/25 01:45:27;;;;;;;3.00;2.70;;;;;;;7.91;100.00;95659.69;4780546;29;20619;-81
2022/12/25 01:47:52;;;;;;;4.60;3.13;;;;;;;7.89;100.00;95660.75;4778184;29;20231;-81
2022/12/25 01:50:18;;;;;;;4.93;3.40;;;;;;;7.85;100.00;95665.34;4777088;30;20211;-81
2022/12/25 01:52:44;;;;;;;5.57;3.10;;;;;;;7.84;100.00;95668.88;4791769;30;20199;-81
2022/12/25 01:55:10;;;;;;;4.30;3.07;;;;;;;7.86;100.00;95667.00;4790991;30;20206;-82
2022/12/25 01:57:37;;;;;;;4.10;3.40;;;;;;;7.87;100.00;95662.66;4791713;29;20219;-81
2022/12/25 02:00:03;;;;;;;3.80;3.20;;;;;;;7.90;100.00;95668.38;4791869;29;20195;-81
2022/12/25 02:02:29;;;;;;;4.13;2.90;;;;;;;7.89;100.00;95676.28;4806403;29;20206;-82
2022/12/25 02:04:58;;;;;;;4.57;3.40;;;;;;;7.92;100.00;95670.84;4790697;30;21031;-81
2022/12/25 02:07:26;;;;;;;3.60;3.20;;;;;;;7.93;100.00;95662.13;4788713;29;20223;-81
2022/12/25 02:09:51;;;;;;;3.80;3.40;;;;;;;7.80;100.00;95671.88;4790062;30;20253;-82
2022/12/25 02:12:25;;;;;;;4.50;3.20;;;;;;;7.98;100.00;95659.16;4791398;30;20246;-81
2022/12/25 02:14:52;;;;;;;6.70;3.53;;;;;;;7.94;100.00;95658.59;4790556;30;20201;-81
2022/12/25 02:17:23;;;;;;;5.50;3.10;;;;;;;7.98;100.00;95659.16;4788475;30;20269;-81
2022/12/25 02:20:13;;;;;;;6.27;4.03;;;;;;;8.02;100.00;95660.53;4792283;30;20192;-81
2022/12/25 02:22:48;;;;;;;4.80;3.77;;;;;;;7.99;100.00;95665.97;4791749;30;20538;-81
2022/12/25 02:25:34;;;;;;;4.67;3.37;;;;;;;7.93;100.00;95660.34;4790371;30;20190;-80
2022/12/25 02:28:18;;;;;;;5.03;3.37;;;;;;;8.03;100.00;95654.41;4790810;30;20557;-80
2022/12/25 02:31:31;;;;;;;4.10;3.37;;;;;;;8.06;99.99;95651.59;4791481;29;20236;-80
2022/12/25 02:34:10;;;;;;;3.70;3.07;;;;;;;8.05;100.00;95650.78;4770083;30;20252;-81
2022/12/25 02:36:45;;;;;;;4.60;3.33;;;;;;;7.91;99.54;95651.09;4756180;30;20704;-80
2022/12/25 02:42:09;;;;;;;3.30;2.87;;;;;;;7.98;100.00;95647.06;4770456;30;20195;-81
2022/12/25 03:07:20;;;;;;;6.80;3.67;;;;;;;7.73;100.00;95630.19;4801489;29;20699;-81
2022/12/25 03:12:41;;;;;;;4.40;3.47;;;;;;;7.66;100.00;95614.38;4758516;30;20679;-81
2022/12/25 03:17:55;;;;;;;5.20;3.60;;;;;;;7.59;100.00;95595.16;4759003;30;20227;-81
2022/12/25 03:28:32;;;;;;;3.57;3.27;;;;;;;7.33;100.00;95583.56;4758062;30;20229;-82
2022/12/25 03:31:11;;;;;;;5.10;3.43;;;;;;;7.36;100.00;95596.25;4755502;30;20215;-81
2022/12/25 04:37:50;;;;;;;4.37;3.50;;;;;;;7.36;100.00;95581.56;4788433;29;20291;-83
2022/12/25 04:40:15;;;;;;;7.43;4.47;;;;;;;7.39;100.00;95576.13;4787615;29;20191;-80
2022/12/25 04:42:41;;;;;;;3.83;3.30;;;;;;;7.44;100.00;95575.78;4772935;30;20207;-81
2022/12/25 04:45:06;;;;;;;4.90;3.43;;;;;;;7.46;100.00;95581.63;4782514;30;20202;-84
2022/12/25 04:47:32;;;;;;;5.60;3.00;;;;;;;7.46;100.00;95573.06;4786799;29;20314;-82
2022/12/25 04:49:57;;;;;;;5.43;3.30;;;;;;;7.44;100.00;95567.19;4787108;30;20592;-83
2022/12/25 04:52:22;;;;;;;3.00;2.70;;;;;;;7.51;100.00;95558.81;4787260;30;20648;-83
2022/12/25 04:54:48;;;;;;;2.97;2.40;;;;;;;7.51;100.00;95563.97;4777076;30;20199;-83
2022/12/25 04:57:14;;;;;;;2.90;2.60;;;;;;;7.56;100.00;95566.97;4785429;29;20227;-83
2022/12/25 04:59:39;;;;;;;3.30;3.00;;;;;;;7.52;100.00;95565.63;4786001;30;20188;-83
2022/12/25 05:02:05;;;;;;;3.53;2.67;;;;;;;7.56;100.00;95558.41;4793413;29;20572;-82
2022/12/25 05:04:30;;;;;;;3.37;2.87;;;;;;;7.66;100.00;95561.84;4788288;29;20207;-83
2022/12/25 05:06:55;;;;;;;2.90;2.70;;;;;;;7.69;100.00;95560.81;4778384;30;20221;-82
2022/12/25 05:09:20;;;;;;;3.10;2.53;;;;;;;7.71;100.00;95556.31;4787644;30;20219;-81
2022/12/25 05:11:46;;;;;;;2.87;2.40;;;;;;;7.77;100.00;95560.94;4788682;30;20199;-81
2022/12/25 05:14:11;;;;;;;2.60;2.40;;;;;;;7.78;100.00;95558.25;4787938;30;20199;-81
2022/12/25 05:16:37;;;;;;;3.93;2.50;;;;;;;7.80;100.00;95563.28;4782264;29;20235;-82
2022/12/25 05:19:02;;;;;;;3.07;2.50;;;;;;;7.76;100.00;95561.91;4772530;30;20230;-81
2022/12/25 05:21:27;;;;;;;3.10;2.33;;;;;;;7.67;100.00;95564.31;4791650;29;20221;-82
2022/12/25 05:23:53;;;;;;;3.20;2.50;;;;;;;7.75;100.00;95557.69;4791204;30;20698;-82
2022/12/25 05:26:23;;;;;;;2.87;2.30;;;;;;;7.80;100.00;95560.72;4790399;29;20257;-83
2022/12/25 05:28:49;;;;;;;4.30;2.70;;;;;;;7.67;100.00;95559.13;4789288;30;20229;-84
2022/12/25 05:31:14;;;;;;;2.53;2.33;;;;;;;7.77;100.00;95561.75;4791461;30;20251;-80
2022/12/25 05:33:39;;;;;;;3.17;2.70;;;;;;;7.74;100.00;95566.38;4784784;30;20630;-82
2022/12/25 05:36:07;;;;;;;3.10;2.80;;;;;;;7.74;100.00;95558.63;4789611;29;20226;-83
2022/12/25 05:38:32;;;;;;;3.67;2.57;;;;;;;7.80;100.00;95547.78;4787211;30;20290;-83
2022/12/25 05:40:57;;;;;;;3.53;2.67;;;;;;;7.77;100.00;95546.25;4788132;30;20211;-82
2022/12/25 05:43:23;;;;;;;4.37;2.77;;;;;;;7.77;100.00;95541.06;4789714;30;20202;-83
2022/12/25 05:45:49;;;;;;;3.30;2.83;;;;;;;7.72;100.00;95545.84;4786364;30;20253;-82
2022/12/25 05:48:14;;;;;;;3.53;2.20;;;;;;;7.80;100.00;95542.59;4790037;30;20203;-82
2022/12/25 05:50:39;;;;;;;3.33;2.43;;;;;;;7.84;100.00;95533.63;4772272;30;20247;-82
2022/12/25 05:53:07;;;;;;;4.17;3.00;;;;;;;7.83;100.00;95534.59;4780876;30;20600;-83
2022/12/25 05:55:37;;;;;;;3.70;2.63;;;;;;;7.67;100.00;95538.47;4774388;29;20199;-83
2022/12/25 05:58:03;;;;;;;3.07;2.60;;;;;;;7.80;100.00;95547.78;4790054;30;20286;-82
2022/12/25 06:00:28;;;;;;;3.10;2.80;;;;;;;7.78;100.00;95541.94;4790332;30;20191;-82
2022/12/25 06:02:53;;;;;;;4.73;2.47;;;;;;;7.67;100.00;95541.03;4785657;30;20215;-82
2022/12/25 06:05:19;;;;;;;3.33;2.80;;;;;;;7.74;100.00;95537.94;4789143;30;20198;-83
2022/12/25 06:07:44;;;;;;;3.87;2.70;;;;;;;7.82;100.00;95541.53;4790271;30;20230;-82
2022/12/25 06:10:09;;;;;;;2.80;2.43;;;;;;;7.82;100.00;95540.69;4774957;30;20211;-83
2022/12/25 06:12:35;;;;;;;3.37;2.70;;;;;;;7.81;100.00;95539.06;4789435;30;20668;-83
2022/12/25 06:15:00;;;;;;;4.00;2.50;;;;;;;7.80;100.00;95543.44;4774725;30;20581;-82
2022/12/25 06:17:25;;;;;;;4.27;2.50;;;;;;;7.80;100.00;95540.03;4789673;29;20321;-83
2022/12/25 06:19:52;;;;;;;3.23;2.50;;;;;;;7.86;100.00;95532.56;4791253;29;20188;-82
2022/12/25 06:22:17;;;;;;;2.50;2.30;;;;;;;7.85;100.00;95533.50;4790371;30;20225;-82
2022/12/25 06:24:42;;;;;;;3.03;2.30;;;;;;;7.85;100.00;95524.91;4784100;30;20199;-82
2022/12/25 06:27:08;;;;;;;4.03;2.30;;;;;;;7.98;100.00;95522.13;4780079;30;20223;-82
2022/12/25 06:29:33;;;;;;;2.70;2.47;;;;;;;7.97;100.00;95525.66;4776103;30;20645;-83
2022/12/25 06:31:58;;;;;;;2.90;2.60;;;;;;;7.93;100.00;95520.72;4789611;29;20206;-82
2022/12/25 06:34:24;;;;;;;2.60;2.00;;;;;;;7.95;100.00;95525.75;4790864;30;20203;-82
2022/12/25 06:36:49;;;;;;;3.77;2.43;;;;;;;7.98;100.00;95530.69;4805054;29;20752;-83
2022/12/25 06:39:14;;;;;;;2.73;2.03;;;;;;;7.95;100.00;95525.75;4775449;30;20579;-82
2022/12/25 06:41:39;;;;;;;2.47;2.07;;;;;;;7.98;100.00;95529.88;4790570;30;20199;-82
2022/12/25 06:44:05;;;;;;;3.50;2.10;;;;;;;7.90;100.00;95528.75;4784159;30;20661;-83
2022/12/25 06:46:30;;;;;;;2.87;2.67;;;;;;;8.01;100.00;95530.41;4789824;30;20222;-83
2022/12/25 06:48:57;;;;;;;2.53;2.30;;;;;;;7.96;100.00;95530.00;4790035;30;20546;-82
2022/12/25 06:51:24;;;;;;;3.20;2.50;;;;;;;8.15;100.00;95531.81;4783294;30;20211;-82
2022/12/25 06:53:50;;;;;;;2.40;2.20;;;;;;;8.04;100.00;95531.91;4781017;30;20298;-83
2022/12/25 06:56:18;;;;;;;2.47;2.20;;;;;;;7.96;100.00;95527.44;4804903;29;20220;-83
2022/12/25 06:58:45;;;;;;;2.70;2.40;;;;;;;7.83;100.00;95525.06;4786954;29;20575;-83
2022/12/25 07:01:16;;;;;;;3.50;2.57;;;;;;;7.85;100.00;95519.75;4789789;30;20191;-82
2022/12/25 07:03:42;;;;;;;3.37;2.70;;;;;;;7.95;100.00;95515.41;4773124;30;20194;-84
2022/12/25 07:06:07;;;;;;;2.93;2.33;;;;;;;7.91;100.00;95511.47;4773536;30;20704;-83
2022/12/25 07:08:33;;;;;;;2.57;2.30;;;;;;;7.84;100.00;95523.28;4774414;30;20207;-83
2022/12/25 07:10:58;;;;;;;4.47;2.57;;;;;;;7.80;100.00;95521.94;4774249;30;20211;-83
2022/12/25 07:13:23;;;;;;;3.63;2.80;;;;;;;7.87;100.00;95523.03;4782009;29;20210;-82
2022/12/25 07:15:55;;;;;;;3.40;2.73;;;;;;;7.86;100.00;95532.56;4774014;29;20215;-82
2022/12/25 07:18:20;;;;;;;3.73;2.90;;;;;;;7.92;100.00;95513.09;4787844;30;20314;-83
2022/12/25 07:20:46;;;;;;;3.03;2.70;;;;;;;7.84;100.00;95528.47;4788162;29;20576;-81
2022/12/25 07:23:11;;;;;;;3.37;3.07;;;;;;;7.85;100.00;95535.25;4774769;30;20207;-81
2022/12/25 07:25:36;;;;;;;6.70;3.17;;;;;;;8.00;100.00;95527.97;4777831;29;20208;-81
2022/12/25 07:28:01;;;;;;;3.83;3.10;;;;;;;8.00;100.00;95512.44;4786915;30;20222;-82
2022/12/25 07:30:27;;;;;;;3.33;2.90;;;;;;;8.05;100.00;95505.94;4773180;30;20211;-82
2022/12/25 07:32:53;;;;;;;3.60;2.90;;;;;;;7.96;100.00;95517.09;4786325;29;20210;-82
2022/12/25 07:35:18;;;;;;;5.33;2.90;;;;;;;7.92;100.00;95503.59;4787780;30;20256;-83
2022/12/25 07:37:43;;;;;;;3.70;2.50;;;;;;;8.05;100.00;95503.34;4784621;30;20227;-82
2022/12/25 07:40:09;;;;;;;2.83;2.60;;;;;;;8.01;100.00;95514.09;4789360;30;20202;-82
2022/12/25 07:42:34;;;;;;;3.10;2.80;;;;;;;7.89;100.00;95500.44;4789084;30;20252;-83
2022/12/25 07:45:00;;;;;;;3.00;2.70;;;;;;;7.91;100.00;95498.53;4789201;29;20663;-83
2022/12/25 07:47:25;;;;;;;2.83;2.63;;;;;;;7.95;100.00;95494.72;4773885;30;20255;-82
2022/12/25 07:49:50;;;;;;;4.60;3.80;;;;;;;7.81;100.00;95487.38;4777606;29;20207;-83
2022/12/25 07:52:15;;;;;;;4.43;2.87;;;;;;;7.88;100.00;95491.88;4788664;30;20203;-83
2022/12/25 07:54:41;;;;;;;5.17;3.57;;;;;;;7.86;100.00;95501.53;4788170;30;20608;-82
2022/12/25 07:57:07;;;;;;;3.43;3.10;;;;;;;7.86;100.00;95505.88;4786520;29;20299;-84
2022/12/25 07:59:32;;;;;;;3.77;3.27;;;;;;;7.94;100.00;95516.38;4795694;29;20202;-80
2022/12/25 08:01:57;;;;;;;4.00;3.37;;;;;;;8.00;100.00;95523.59;4786435;30;20202;-82
2022/12/25 08:04:29;;;;;;;4.30;3.53;;;;;;;8.00;100.00;95528.78;5058979;28;20578;-82
2022/12/25 08:06:54;;;;;;;4.03;3.63;;;;;;;8.17;100.00;95528.13;5061749;28;20220;-82
2022/12/25 08:09:20;;;;;;;4.67;3.77;;;;;;;8.27;100.00;95524.75;5049011;28;20184;-82
2022/12/25 08:11:45;;;;;;;4.60;3.83;;;;;;;8.36;100.00;95529.97;5030725;28;20220;-82
2022/12/25 08:14:11;;;;;;;6.33;3.90;;;;;;;8.27;100.00;95530.75;5045307;28;20226;-82
2022/12/25 08:16:40;;;;;;;4.33;3.57;;;;;;;8.50;100.00;95533.94;5039806;28;20216;-82
2022/12/25 08:19:09;;;;;;;4.27;3.60;;;;;;;8.39;100.00;95527.13;5034853;28;20213;-82
2022/12/25 08:21:34;;;;;;;5.13;3.67;;;;;;;8.40;100.00;95531.34;5046450;28;20190;-82
2022/12/25 08:24:01;;;;;;;5.60;3.83;;;;;;;8.40;100.00;95526.19;5034977;28;20213;-82
2022/12/25 08:26:26;;;;;;;5.13;3.53;;;;;;;8.51;100.00;95530.41;5037186;28;20210;-82
2022/12/25 08:28:52;;;;;;;5.80;3.50;;;;;;;8.50;100.00;95533.94;5048810;28;20828;-79
2022/12/25 08:31:21;;;;;;;5.03;3.60;;;;;;;8.55;100.00;95530.94;5053355;28;20193;-82
2022/12/25 08:33:47;;;;;;;4.40;3.20;;;;;;;8.63;100.00;95539.66;5044773;28;20181;-82
2022/12/25 08:36:13;;;;;;;9.17;3.97;;;;;;;8.61;100.00;95533.81;5048943;28;20547;-82
2022/12/25 08:38:39;;;;;;;4.93;3.83;;;;;;;8.69;100.00;95536.53;5068804;28;20274;-82
2022/12/25 08:41:04;;;;;;;8.80;3.87;;;;;;;8.71;99.79;95533.81;5052482;28;20193;-82
2022/12/25 08:43:30;;;;;;;4.00;3.50;;;;;;;8.67;100.00;95532.47;5059083;28;20209;-81
2022/12/25 08:45:55;;;;;;;6.57;4.40;;;;;;;8.57;100.00;95527.28;5051141;28;20202;-81
2022/12/25 08:48:20;;;;;;;5.63;4.17;;;;;;;8.79;100.00;95521.81;5049356;28;20197;-81
2022/12/25 08:50:50;;;;;;;6.37;4.63;;;;;;;8.82;100.00;95512.13;5037111;28;20190;-81
2022/12/25 08:53:16;;;;;;;5.10;3.90;;;;;;;8.81;99.75;95490.59;5053425;28;20210;-80
2022/12/25 08:55:41;;;;;;;6.57;4.00;;;;;;;8.89;99.69;95479.56;5030106;28;20217;-81
2022/12/25 08:58:07;;;;;;;4.73;3.73;;;;;;;8.96;98.56;95472.88;5036234;28;20589;-81
2022/12/25 09:00:32;;;;;;;6.37;3.97;;;;;;;8.89;99.26;95484.75;5057235;28;20221;-81
2022/12/25 09:02:57;;;;;;;5.10;4.07;;;;;;;8.87;100.00;95489.25;5045342;28;20248;-82
2022/12/25 09:05:23;;;;;;;4.90;3.83;;;;;;;8.88;100.00;95483.09;5048365;28;20216;-82
2022/12/25 09:07:48;;;;;;;6.70;4.40;;;;;;;8.72;100.00;95486.25;5049986;28;20231;-82
2022/12/25 09:10:13;;;;;;;4.97;3.63;;;;;;;8.85;99.88;95488.56;5051540;28;20230;-83
2022/12/25 09:12:39;;;;;;;4.80;4.30;;;;;;;8.92;99.86;95493.06;5069419;28;20219;-83
2022/12/25 09:15:05;;;;;;;4.93;4.17;;;;;;;8.99;98.95;95493.31;5044503;28;20182;-82
2022/12/25 09:17:31;;;;;;;5.57;4.50;;;;;;;9.04;98.85;95493.72;5057611;28;20209;-82
2022/12/25 09:19:56;;;;;;;5.47;4.20;;;;;;;9.07;98.51;95502.00;5042543;28;20221;-82
2022/12/25 09:22:22;;;;;;;5.70;4.53;;;;;;;8.98;99.32;95496.84;5043690;28;20196;-82
2022/12/25 09:24:47;;;;;;;4.17;3.77;;;;;;;9.07;98.93;95498.59;5041643;28;20189;-82
2022/12/25 09:27:12;;;;;;;4.40;3.73;;;;;;;9.15;98.34;95508.28;5058652;28;20213;-83
2022/12/25 09:29:38;;;;;;;4.53;3.57;;;;;;;9.23;98.08;95506.63;5042175;28;20556;-87
2022/12/25 09:32:04;;;;;;;5.80;3.90;;;;;;;9.27;97.69;95510.56;5040953;28;20710;-83
2022/12/25 09:34:29;;;;;;;4.73;3.90;;;;;;;9.31;97.74;95511.09;5043495;28;20229;-82
2022/12/25 09:36:55;;;;;;;5.87;3.90;;;;;;;9.52;96.38;95509.13;5035802;28;20245;-82
2022/12/25 09:39:20;;;;;;;4.57;3.60;;;;;;;9.60;96.02;95508.41;5038843;28;20223;-81
2022/12/25 09:41:59;;;;;;;4.20;3.60;;;;;;;9.77;95.81;95505.06;5054452;28;20348;-86
2022/12/25 09:44:30;;;;;;;5.30;3.60;;;;;;;9.91;95.32;95502.00;5033054;28;20220;-82
2022/12/25 09:47:03;;;;;;;6.00;4.10;;;;;;;10.08;94.27;95503.00;5053389;28;20677;-82
2022/12/25 09:49:38;;;;;;;7.43;5.40;;;;;;;10.36;93.10;95496.03;5034625;28;20552;-78
2022/12/25 09:52:27;;;;;;;4.73;3.50;;;;;;;10.64;91.84;95491.56;5052963;28;20189;-79
2022/12/25 09:54:59;;;;;;;5.00;4.10;;;;;;;10.75;90.43;95493.94;5033111;28;20210;-83
2022/12/25 09:57:25;;;;;;;3.30;3.00;;;;;;;10.97;89.49;95482.28;5050417;28;20197;-80
2022/12/25 09:59:51;;;;;;;3.27;2.97;;;;;;;11.11;89.52;95480.06;5046797;28;20235;-80
2022/12/25 10:02:35;;;;;;;4.03;2.97;;;;;;;10.97;88.59;95476.25;5041062;28;20243;-80
2022/12/25 10:05:19;;;;;;;5.10;3.27;;;;;;;10.76;88.40;95473.97;5079731;28;20194;-80
2022/12/25 10:08:22;;;;;;;4.60;3.10;;;;;;;10.79;89.24;95473.69;5076130;28;20651;-80
2022/12/25 10:10:50;;;;;;;3.73;2.83;;;;;;;10.85;89.17;95480.88;5063789;28;20193;-80
2022/12/25 10:13:39;;;;;;;4.27;2.77;;;;;;;10.77;88.36;95471.22;5049964;28;20247;-82
2022/12/25 10:16:35;;;;;;;4.23;3.30;;;;;;;10.85;88.17;95467.88;5065973;28;20210;-82
2022/12/25 10:19:19;;;;;;;3.80;2.67;;;;;;;10.80;88.51;95467.53;5043924;28;20506;-83
2022/12/25 10:21:45;;;;;;;4.00;3.03;;;;;;;10.86;88.45;95459.09;5066937;28;20181;-80
2022/12/25 10:24:39;;;;;;;3.23;2.90;;;;;;;10.94;88.55;95459.16;5065335;28;20274;-83
2022/12/25 10:27:12;;;;;;;2.93;2.60;;;;;;;10.94;88.43;95463.56;5080564;28;20217;-82
2022/12/25 10:29:38;;;;;;;4.20;2.57;;;;;;;10.97;88.52;95456.28;5045699;28;20249;-79
2022/12/25 10:32:04;;;;;;;3.57;3.10;;;;;;;11.07;88.17;95459.59;5062251;28;20185;-80
2022/12/25 10:34:29;;;;;;;3.33;2.63;;;;;;;11.13;88.03;95460.78;5067475;28;20180;-79
2022/12/25 10:36:54;;;;;;;2.90;2.60;;;;;;;11.24;86.90;95451.91;5048158;28;20209;-80
2022/12/25 10:39:23;;;;;;;3.43;2.73;;;;;;;11.27;86.76;95454.19;5064890;28;20186;-83
2022/12/25 10:42:09;;;;;;;3.90;2.57;;;;;;;11.50;85.90;95439.69;5048132;28;20245;-82
2022/12/25 10:44:35;;;;;;;3.77;2.60;;;;;;;11.58;85.30;95437.13;5048305;28;20200;-81
2022/12/25 10:47:01;;;;;;;3.00;2.63;;;;;;;11.48;84.78;95438.19;5063849;28;20205;-81
2022/12/25 10:49:29;;;;;;;3.03;2.10;;;;;;;11.59;84.89;95436.16;5057443;28;20213;-80
2022/12/25 10:51:55;;;;;;;3.20;2.90;;;;;;;11.56;85.23;95438.22;5063403;28;20182;-81
2022/12/25 10:54:21;;;;;;;3.17;2.40;;;;;;;11.83;84.01;95437.22;5046992;28;20211;-81
2022/12/25 10:57:01;;;;;;;2.90;2.07;;;;;;;11.86;83.58;95426.53;5063106;28;20206;-81
2022/12/25 10:59:28;;;;;;;2.30;2.10;;;;;;;11.95;83.74;95430.78;5045945;28;20221;-81
2022/12/25 11:01:54;;;;;;;2.67;2.10;;;;;;;11.99;83.32;95426.88;5061111;28;20201;-81
2022/12/25 11:04:23;;;;;;;3.93;2.20;;;;;;;12.01;83.10;95430.13;5062436;28;20218;-80
2022/12/25 11:06:56;;;;;;;3.57;3.10;;;;;;;11.84;83.80;95418.06;5061642;28;20217;-80
2022/12/25 11:09:21;;;;;;;3.10;2.63;;;;;;;11.85;83.98;95419.69;5061348;28;20186;-82
2022/12/25 11:11:47;;;;;;;2.43;2.23;;;;;;;11.63;84.85;95426.25;5046431;28;20255;-82
2022/12/25 11:14:17;;;;;;;2.50;2.30;;;;;;;11.79;84.17;95428.09;5047766;28;20186;-81
2022/12/25 11:16:42;;;;;;;3.20;2.80;;;;;;;11.86;84.19;95422.13;5063041;28;20585;-81
2022/12/25 11:19:28;;;;;;;3.57;2.60;;;;;;;12.08;83.37;95415.50;5047496;28;20284;-80
2022/12/25 11:21:56;;;;;;;2.87;2.50;;;;;;;12.06;82.91;95412.25;5051022;28;20174;-82
2022/12/25 11:24:27;;;;;;;3.07;2.57;;;;;;;12.02;83.27;95408.34;5054432;28;20211;-81
2022/12/25 11:26:55;;;;;;;3.57;1.90;;;;;;;11.94;83.13;95404.91;5053389;28;20221;-81
2022/12/25 11:29:25;;;;;;;2.73;2.37;;;;;;;12.25;82.52;95410.31;5061211;28;20190;-81
2022/12/25 11:31:53;;;;;;;3.70;2.27;;;;;;;12.21;82.31;95391.63;5047218;28;20217;-80
2022/12/25 11:34:27;;;;;;;1.83;1.70;;;;;;;12.20;82.06;95387.41;5063291;28;20193;-79
2022/12/25 11:36:53;;;;;;;3.80;2.00;;;;;;;12.36;81.87;95391.78;5045017;28;20188;-81
2022/12/25 11:39:33;;;;;;;2.60;1.83;;;;;;;12.31;81.84;95388.88;5064526;28;20245;-81
2022/12/25 11:42:06;;;;;;;2.20;1.97;;;;;;;12.55;80.72;95382.84;5063390;28;20177;-81
2022/12/25 11:44:55;;;;;;;1.60;1.50;;;;;;;12.55;80.64;95383.66;5064054;28;20249;-80
2022/12/25 11:47:24;;;;;;;1.80;1.53;;;;;;;12.68;80.75;95385.75;5046931;28;20269;-82
2022/12/25 11:50:02;;;;;;;2.30;1.70;;;;;;;12.88;79.24;95375.78;5060631;28;20269;-81
2022/12/25 11:52:33;;;;;;;1.80;1.70;;;;;;;13.11;77.27;95370.69;5046174;28;20185;-81
2022/12/25 11:55:40;;;;;;;1.50;1.37;;;;;;;13.38;77.15;95359.06;5046016;28;20186;-80
2022/12/25 11:58:20;;;;;;;2.60;1.50;;;;;;;13.42;76.19;95361.16;5046544;28;20269;-81
2022/12/25 12:00:46;;;;;;;1.70;1.60;;;;;;;13.59;75.45;95348.84;5046008;28;20188;-81
2022/12/25 12:03:19;;;;;;;2.00;1.90;;;;;;;13.66;75.41;95352.41;5062794;28;20737;-82
2022/12/25 12:05:51;;;;;;;1.87;1.67;;;;;;;13.85;74.79;95346.75;5045352;28;20193;-82
2022/12/25 12:08:16;;;;;;;1.63;1.53;;;;;;;13.79;75.08;95341.44;5061944;28;20185;-82
2022/12/25 12:11:14;;;;;;;1.93;1.70;;;;;;;13.95;74.22;95338.69;5046719;28;20207;-82
2022/12/25 12:13:56;;;;;;;2.77;2.00;;;;;;;13.95;74.12;95322.22;5076957;28;20216;-81
2022/12/25 12:16:21;;;;;;;2.27;1.80;;;;;;;14.10;72.32;95325.72;5060497;28;20282;-82
2022/12/25 12:18:46;;;;;;;2.73;1.50;;;;;;;14.00;72.72;95336.38;5043713;28;20210;-81
2022/12/25 12:21:15;;;;;;;1.33;1.23;;;;;;;13.92;73.29;95330.41;5059680;28;20196;-80
2022/12/25 12:24:04;;;;;;;1.37;1.23;;;;;;;13.82;73.25;95328.84;5061456;28;20282;-81
2022/12/25 12:26:35;;;;;;;1.97;1.57;;;;;;;13.72;73.43;95333.47;5063416;28;20585;-81
2022/12/25 12:29:01;;;;;;;1.60;1.40;;;;;;;13.62;74.14;95338.09;5046308;28;20182;-81
2022/12/25 12:31:41;;;;;;;2.00;1.70;;;;;;;13.50;74.27;95342.88;5046066;28;20190;-82
2022/12/25 12:34:20;;;;;;;1.60;1.10;;;;;;;13.24;74.79;95345.75;5045211;28;20188;-82
2022/12/25 12:36:45;;;;;;;1.37;1.10;;;;;;;13.46;74.15;95338.16;5048914;28;20208;-81
2022/12/25 12:39:20;;;;;;;2.63;1.20;;;;;;;13.50;74.74;95342.88;5046145;28;20201;-81
2022/12/25 12:41:47;;;;;;;1.20;1.10;;;;;;;13.58;74.06;95340.22;5037979;28;20220;-81
2022/12/25 12:44:13;;;;;;;1.60;1.50;;;;;;;13.63;73.33;95346.72;5038901;28;20213;-82
2022/12/25 12:46:52;;;;;;;1.50;1.20;;;;;;;13.84;72.73;95334.69;5060535;28;20222;-81
2022/12/25 12:49:24;;;;;;;1.57;1.20;;;;;;;13.78;72.27;95329.34;5059278;28;20210;-82
2022/12/25 12:52:02;;;;;;;1.63;1.53;;;;;;;13.79;72.02;95339.63;5048985;28;20239;-81
2022/12/25 12:54:27;;;;;;;2.00;1.80;;;;;;;13.51;72.88;95330.63;5049694;28;20281;-81
2022/12/25 12:57:04;;;;;;;1.37;1.27;;;;;;;13.62;72.17;95322.44;5046530;28;20282;-81
2022/12/25 12:59:36;;;;;;;3.07;1.80;;;;;;;13.66;72.56;95317.69;5063323;28;20182;-81
2022/12/25 13:02:29;;;;;;;1.80;1.30;;;;;;;13.63;72.11;95305.81;5078461;28;20258;-82
2022/12/25 13:05:01;;;;;;;2.50;2.00;;;;;;;13.62;72.33;95311.19;5077756;28;20654;-81
2022/12/25 13:07:34;;;;;;;2.83;2.20;;;;;;;13.65;72.38;95311.66;5048341;28;20259;-81
2022/12/25 13:10:22;;;;;;;3.27;2.60;;;;;;;13.49;73.07;95320.38;5049277;28;20194;-82
2022/12/25 13:12:58;;;;;;;1.60;1.30;;;;;;;13.59;72.30;95317.53;5047756;28;20189;-82
2022/12/25 13:15:27;;;;;;;2.77;1.50;;;;;;;13.56;72.72;95323.94;5063653;28;20185;-82
2022/12/25 13:17:53;;;;;;;1.97;1.33;;;;;;;13.52;72.66;95322.66;5048490;28;20260;-81
2022/12/25 13:20:23;;;;;;;1.50;1.40;;;;;;;13.51;72.82;95323.63;5047601;28;20186;-81
2022/12/25 13:22:48;;;;;;;1.43;1.33;;;;;;;13.48;73.83;95320.56;5048076;28;20209;-81
2022/12/25 13:25:19;;;;;;;1.83;1.40;;;;;;;13.57;73.31;95329.97;5057868;28;20212;-82
2022/12/25 13:27:44;;;;;;;2.20;1.23;;;;;;;13.55;73.09;95327.53;5043557;28;20198;-81